createdAt,value
2022-11-24T00:01:04.516Z,93203.25
2022-11-24T00:03:31.026Z,93204.94
2022-11-24T00:06:03.255Z,93205.97
2022-11-24T00:08:29.734Z,93212.72
2022-11-24T00:11:03.447Z,93208.28
2022-11-24T00:13:29.933Z,93211.31
2022-11-24T00:16:04.561Z,93202.34
2022-11-24T00:18:31.288Z,93202.94
2022-11-24T00:20:57.756Z,93210.16
2022-11-24T00:23:24.268Z,93210.91
2022-11-24T00:25:50.691Z,93219.28
2022-11-24T00:28:17.074Z,93185.97
2022-11-24T00:30:43.696Z,93206.81
2022-11-24T00:33:10.293Z,93209.03
2022-11-24T00:35:36.704Z,93220.75
2022-11-24T00:38:03.157Z,93231.41
2022-11-24T00:40:34.736Z,93166.78
2022-11-24T00:43:01.518Z,93219.88
2022-11-24T00:45:27.958Z,93238.78
2022-11-24T00:47:54.380Z,93231.88
2022-11-24T00:50:21.329Z,93244.72
2022-11-24T00:52:47.737Z,93236.06
2022-11-24T00:55:14.225Z,93234.34
2022-11-24T00:57:41.646Z,93245.22
2022-11-24T01:00:08.689Z,93273.59
2022-11-24T01:02:35.118Z,93263.25
2022-11-24T01:05:03.240Z,93279.41
2022-11-24T01:07:30.757Z,93284.34
2022-11-24T01:09:57.306Z,93286.44
2022-11-24T01:12:23.723Z,93276.88
2022-11-24T01:14:50.146Z,93283.44
2022-11-24T01:17:16.550Z,93298.88
2022-11-24T01:19:43.026Z,93275.72
2022-11-24T01:22:09.712Z,93275.22
2022-11-24T01:24:36.391Z,93271.56
2022-11-24T01:27:02.995Z,93217.78
2022-11-24T01:29:43.746Z,93298.56
2022-11-24T01:32:10.145Z,93290.78
2022-11-24T01:34:36.580Z,93300.25
2022-11-24T01:37:03.078Z,93291.94
2022-11-24T01:39:29.578Z,93302.56
2022-11-24T01:41:56.004Z,93303.84
2022-11-24T01:44:25.101Z,93326.63
2022-11-24T01:47:21.490Z,93305.56
2022-11-24T01:49:53.759Z,93332.25
2022-11-24T01:52:31.609Z,93329.56
2022-11-24T01:55:03.491Z,93334.19
2022-11-24T01:57:34.554Z,93352.47
2022-11-24T02:00:06.280Z,93360.38
2022-11-24T02:02:32.779Z,93333.31
2022-11-24T02:05:05.712Z,93336.34
2022-11-24T02:07:33.196Z,93354.56
2022-11-24T02:10:04.656Z,93365.47
2022-11-24T02:12:32.732Z,93362.44
2022-11-24T02:14:59.436Z,93366.06
2022-11-24T02:17:25.834Z,93353.69
2022-11-24T02:20:01.622Z,93374.03
2022-11-24T02:22:27.972Z,93377.41
2022-11-24T02:25:30.991Z,93380.91
2022-11-24T02:28:00.022Z,93362.50
2022-11-24T02:30:26.580Z,93385.84
2022-11-24T02:32:53.050Z,93387.81
2022-11-24T02:35:20.181Z,93354.41
2022-11-24T02:37:48.615Z,93364.94
2022-11-24T02:40:18.552Z,93371.59
2022-11-24T02:42:47.059Z,93365.47
2022-11-24T02:45:15.139Z,93388.19
2022-11-24T02:47:41.613Z,93370.50
2022-11-24T02:50:08.437Z,93383.63
2022-11-24T02:52:34.832Z,93376.72
2022-11-24T02:55:01.261Z,93399.59
2022-11-24T02:57:27.683Z,93383.25
2022-11-24T03:00:13.144Z,93411.19
2022-11-24T03:02:40.490Z,93408.53
2022-11-24T03:05:07.666Z,93420.38
2022-11-24T03:07:34.150Z,93415.56
2022-11-24T03:10:00.669Z,93397.63
2022-11-24T03:12:27.124Z,93428.59
2022-11-24T03:14:53.508Z,93398.88
2022-11-24T03:17:19.922Z,93386.38
2022-11-24T03:19:46.361Z,93417.28
2022-11-24T03:22:13.844Z,93419.66
2022-11-24T03:24:40.247Z,93409.25
2022-11-24T03:27:06.737Z,93405.91
2022-11-24T03:29:33.175Z,93403.34
2022-11-24T03:31:59.682Z,93400.31
2022-11-24T03:34:26.238Z,93434.28
2022-11-24T03:36:52.684Z,93413.47
2022-11-24T03:39:20.168Z,93417.53
2022-11-24T03:41:46.619Z,93418.56
2022-11-24T03:44:13.061Z,93393.34
2022-11-24T03:46:39.486Z,93427.31
2022-11-24T03:49:05.886Z,93431.53
2022-11-24T03:51:32.289Z,93424.38
2022-11-24T03:53:58.690Z,93405.47
2022-11-24T03:56:25.108Z,93406.63
2022-11-24T03:58:51.751Z,93402.47
2022-11-24T04:01:18.468Z,93408.66
2022-11-24T04:03:44.931Z,93441.19
2022-11-24T04:06:11.403Z,93429.66
2022-11-24T04:08:37.829Z,93436.97
2022-11-24T04:11:04.404Z,93434.66
2022-11-24T04:13:30.804Z,93409.63
2022-11-24T04:15:57.395Z,93418.97
2022-11-24T04:18:23.920Z,93437.06
2022-11-24T04:20:51.003Z,93436.66
2022-11-24T04:23:18.035Z,93438.03
2022-11-24T04:25:44.587Z,93435.97
2022-11-24T04:28:11.047Z,93427.31
2022-11-24T04:30:38.617Z,93421.09
2022-11-24T04:33:11.432Z,93427.34
2022-11-24T04:35:37.864Z,93427.88
2022-11-24T04:38:04.351Z,93422.69
2022-11-24T04:40:30.795Z,93416.97
2022-11-24T04:42:57.269Z,93420.38
2022-11-24T04:45:24.051Z,93447.91
2022-11-24T04:47:51.020Z,93464.63
2022-11-24T04:50:17.731Z,93455.06
2022-11-24T04:52:48.342Z,93447.81
2022-11-24T04:55:14.879Z,93452.72
2022-11-24T04:57:41.395Z,93444.69
2022-11-24T05:00:09.149Z,93456.50
2022-11-24T05:02:35.959Z,93470.25
2022-11-24T05:05:02.454Z,93473.38
2022-11-24T05:07:32.486Z,93480.88
2022-11-24T05:10:17.634Z,93472.50
2022-11-24T05:13:04.741Z,93497.44
2022-11-24T05:15:31.617Z,93471.13
2022-11-24T05:17:58.289Z,93470.78
2022-11-24T05:20:25.105Z,93490.81
2022-11-24T05:22:51.655Z,93480.97
2022-11-24T05:25:18.124Z,93476.16
2022-11-24T05:27:44.547Z,93492.84
2022-11-24T05:30:11.806Z,93506.63
2022-11-24T05:32:38.224Z,93515.28
2022-11-24T05:35:05.394Z,93519.03
2022-11-24T05:37:33.860Z,93513.34
2022-11-24T05:40:02.545Z,93533.00
2022-11-24T05:42:46.208Z,93514.94
2022-11-24T05:45:17.030Z,93523.31
2022-11-24T05:47:43.763Z,93528.00
2022-11-24T05:50:25.544Z,93501.63
2022-11-24T05:52:52.045Z,93493.34
2022-11-24T05:55:19.597Z,93502.69
2022-11-24T05:57:46.749Z,93525.78
2022-11-24T06:00:14.252Z,93522.63
2022-11-24T06:02:41.032Z,93513.34
2022-11-24T06:05:08.316Z,93511.91
2022-11-24T06:07:45.207Z,93494.81
2022-11-24T06:10:11.651Z,93499.22
2022-11-24T06:12:38.059Z,93526.50
2022-11-24T06:15:04.906Z,93495.81
2022-11-24T06:17:31.540Z,93521.41
2022-11-24T06:19:58.049Z,93527.28
2022-11-24T06:22:24.616Z,93535.69
2022-11-24T06:24:51.188Z,93505.28
2022-11-24T06:27:17.942Z,93514.94
2022-11-24T06:29:44.400Z,93538.00
2022-11-24T06:32:11.134Z,93516.03
2022-11-24T06:34:38.712Z,93536.97
2022-11-24T06:37:05.258Z,93495.25
2022-11-24T06:39:31.845Z,93501.53
2022-11-24T06:41:58.580Z,93515.28
2022-11-24T06:44:51.139Z,93539.47
2022-11-24T06:47:17.529Z,93521.41
2022-11-24T06:49:54.089Z,93547.78
2022-11-24T06:52:20.497Z,93542.50
2022-11-24T06:54:46.914Z,93520.63
2022-11-24T06:57:13.299Z,93539.63
2022-11-24T06:59:40.008Z,93544.47
2022-11-24T07:02:06.445Z,93542.22
2022-11-24T07:04:33.256Z,93539.28
2022-11-24T07:07:06.923Z,93533.63
2022-11-24T07:09:33.406Z,93555.22
2022-11-24T07:12:00.114Z,93541.53
2022-11-24T07:14:26.582Z,93536.59
2022-11-24T07:16:53.064Z,93537.31
2022-11-24T07:19:24.620Z,93557.34
2022-11-24T07:21:51.587Z,93553.59
2022-11-24T07:24:18.020Z,93528.81
2022-11-24T07:26:44.411Z,93563.97
2022-11-24T07:29:10.862Z,93551.00
2022-11-24T07:31:37.317Z,93550.56
2022-11-24T07:34:06.340Z,93577.41
2022-11-24T07:36:32.797Z,93547.59
2022-11-24T07:38:59.349Z,93567.03
2022-11-24T07:41:25.987Z,93551.16
2022-11-24T07:43:53.055Z,93545.63
2022-11-24T07:46:20.249Z,93566.69
2022-11-24T07:48:47.324Z,93550.38
2022-11-24T07:51:14.385Z,93582.06
2022-11-24T07:53:40.816Z,93590.38
2022-11-24T07:56:08.015Z,93558.44
2022-11-24T07:58:36.190Z,93560.22
2022-11-24T08:01:14.706Z,93575.38
2022-11-24T08:03:42.463Z,93580.41
2022-11-24T08:06:38.668Z,93568.31
2022-11-24T08:09:01.396Z,93578.97
2022-11-24T08:11:28.414Z,93558.91
2022-11-24T08:13:54.851Z,93555.50
2022-11-24T08:16:21.479Z,93569.09
2022-11-24T08:18:52.803Z,93581.81
2022-11-24T08:21:19.921Z,93565.00
2022-11-24T08:23:46.647Z,93588.28
2022-11-24T08:26:17.854Z,93595.31
2022-11-24T08:28:45.592Z,93560.34
2022-11-24T08:31:14.983Z,93582.56
2022-11-24T08:33:41.991Z,93591.41
2022-11-24T08:36:11.242Z,93601.22
2022-11-24T08:38:38.272Z,93583.25
2022-11-24T08:41:08.440Z,93595.09
2022-11-24T08:43:35.351Z,93599.69
2022-11-24T08:46:07.252Z,93602.25
2022-11-24T08:48:34.420Z,93604.25
2022-11-24T08:51:11.552Z,93568.06
2022-11-24T08:53:38.595Z,93601.34
2022-11-24T08:56:06.045Z,93602.28
2022-11-24T08:58:33.485Z,93620.44
2022-11-24T09:01:10.384Z,93618.13
2022-11-24T09:03:37.681Z,93603.00
2022-11-24T09:06:04.842Z,93593.22
2022-11-24T09:08:31.699Z,93604.94
2022-11-24T09:11:03.412Z,93629.81
2022-11-24T09:13:30.093Z,93642.09
2022-11-24T09:15:56.577Z,93621.19
2022-11-24T09:18:27.476Z,93636.16
2022-11-24T09:21:09.395Z,93629.63
2022-11-24T09:23:36.169Z,93636.38
2022-11-24T09:26:08.305Z,93645.88
2022-11-24T09:28:34.809Z,93620.97
2022-11-24T09:31:07.359Z,93639.94
2022-11-24T09:33:34.584Z,93641.41
2022-11-24T09:36:01.509Z,93609.78
2022-11-24T09:38:28.339Z,93614.25
2022-11-24T09:40:58.101Z,93617.69
2022-11-24T09:44:06.264Z,93624.34
2022-11-24T09:46:36.037Z,93623.91
2022-11-24T09:49:06.490Z,93609.25
2022-11-24T09:51:34.067Z,93610.16
2022-11-24T09:54:05.921Z,93630.19
2022-11-24T09:56:35.186Z,93629.81
2022-11-24T09:59:15.953Z,93611.75
2022-11-24T10:01:46.734Z,93644.53
2022-11-24T10:04:35.182Z,93631.28
2022-11-24T10:07:20.933Z,93658.84
2022-11-24T10:09:50.298Z,93664.59
2022-11-24T10:12:29.069Z,93678.56
2022-11-24T10:15:24.437Z,93685.00
2022-11-24T10:18:13.284Z,93682.50
2022-11-24T10:21:02.768Z,93664.06
2022-11-24T10:23:41.339Z,93690.47
2022-11-24T10:26:39.479Z,93690.84
2022-11-24T10:29:21.361Z,93668.63
2022-11-24T10:31:51.906Z,93699.75
2022-11-24T10:34:27.277Z,93662.75
2022-11-24T10:37:19.875Z,93706.53
2022-11-24T10:40:06.126Z,93699.16
2022-11-24T10:42:37.992Z,93682.72
2022-11-24T10:45:14.316Z,93665.47
2022-11-24T10:47:41.274Z,93697.63
2022-11-24T10:50:19.898Z,93693.16
2022-11-24T10:53:05.521Z,93714.63
2022-11-24T10:55:57.924Z,93696.22
2022-11-24T10:58:36.058Z,93703.78
2022-11-24T11:01:13.192Z,93711.63
2022-11-24T11:03:58.088Z,93694.91
2022-11-24T11:06:28.912Z,93683.97
2022-11-24T11:09:22.211Z,93713.56
2022-11-24T11:12:36.221Z,93706.44
2022-11-24T11:14:57.230Z,93701.59
2022-11-24T11:17:27.428Z,93719.88
2022-11-24T11:20:02.017Z,93684.63
2022-11-24T11:22:35.813Z,93705.06
2022-11-24T11:25:11.541Z,93700.38
2022-11-24T11:27:40.009Z,93688.94
2022-11-24T11:35:48.924Z,93695.91
2022-11-24T11:38:15.736Z,93684.09
2022-11-24T11:40:43.761Z,93683.94
2022-11-24T11:43:17.596Z,93701.88
2022-11-24T11:45:46.107Z,93711.66
2022-11-24T11:48:40.834Z,93699.78
2022-11-24T11:51:31.870Z,93721.38
2022-11-24T11:54:23.896Z,93711.50
2022-11-24T11:57:02.615Z,93704.88
2022-11-24T11:59:38.040Z,93680.84
2022-11-24T12:02:23.486Z,93703.25
2022-11-24T12:04:59.467Z,93708.22
2022-11-24T12:07:45.498Z,93710.94
2022-11-24T12:10:23.937Z,93695.31
2022-11-24T12:12:50.679Z,93700.41
2022-11-24T12:15:26.604Z,93700.81
2022-11-24T12:18:03.532Z,93697.28
2022-11-24T12:20:44.091Z,93694.50
2022-11-24T12:23:37.931Z,93716.25
2022-11-24T12:26:22.629Z,93720.69
2022-11-24T12:29:12.372Z,93722.81
2022-11-24T12:32:00.280Z,93733.38
2022-11-24T12:34:53.681Z,93693.97
2022-11-24T12:37:35.751Z,93730.16
2022-11-24T12:40:08.294Z,93722.25
2022-11-24T12:43:02.697Z,93727.84
2022-11-24T12:45:50.609Z,93716.38
2022-11-24T12:48:26.194Z,93694.94
2022-11-24T12:50:55.331Z,93725.78
2022-11-24T12:53:29.270Z,93714.41
2022-11-24T12:56:05.717Z,93693.09
2022-11-24T12:58:45.752Z,93725.31
2022-11-24T13:01:21.634Z,93736.53
2022-11-24T13:04:03.225Z,93735.59
2022-11-24T13:07:01.362Z,93726.78
2022-11-24T13:09:27.945Z,93705.63
2022-11-24T13:12:11.497Z,93730.66
2022-11-24T13:14:44.337Z,93734.84
2022-11-24T13:17:52.455Z,93744.97
2022-11-24T13:20:20.867Z,93752.56
2022-11-24T13:22:56.323Z,93752.31
2022-11-24T13:25:32.234Z,93734.34
2022-11-24T13:28:00.166Z,93752.56
2022-11-24T13:30:45.892Z,93750.44
2022-11-24T13:33:17.080Z,93761.09
2022-11-24T13:36:25.136Z,93758.44
2022-11-24T13:38:52.430Z,93759.63
2022-11-24T13:41:42.036Z,93737.19
2022-11-24T13:44:14.888Z,93775.09
2022-11-24T13:47:06.053Z,93767.03
2022-11-24T13:49:40.676Z,93767.56
2022-11-24T13:52:58.092Z,93776.00
2022-11-24T13:55:34.234Z,93757.84
2022-11-24T13:58:37.392Z,93772.88
2022-11-24T14:01:12.839Z,93773.97
2022-11-24T14:04:35.497Z,93768.03
2022-11-24T14:07:11.128Z,93769.88
2022-11-24T14:09:37.632Z,93781.53
2022-11-24T14:12:16.959Z,93778.88
2022-11-24T14:14:46.184Z,93771.72
2022-11-24T14:17:22.932Z,93787.84
2022-11-24T14:19:54.748Z,93750.91
2022-11-24T14:22:41.355Z,93781.66
2022-11-24T14:25:23.009Z,93762.94
2022-11-24T14:27:49.622Z,93778.25
2022-11-24T14:30:21.897Z,93773.72
2022-11-24T14:33:00.587Z,93766.53
2022-11-24T14:35:32.569Z,93777.38
2022-11-24T14:38:03.099Z,93757.84
2022-11-24T14:40:53.888Z,93786.41
2022-11-24T14:43:36.625Z,93763.59
2022-11-24T14:46:17.674Z,93786.97
2022-11-24T14:48:53.213Z,93790.69
2022-11-24T14:51:56.065Z,93780.31
2022-11-24T14:54:23.842Z,93788.25
2022-11-24T14:57:07.039Z,93783.50
2022-11-24T14:59:36.165Z,93797.38
2022-11-24T15:02:03.272Z,93788.97
2022-11-24T15:05:01.498Z,93790.56
2022-11-24T15:07:27.052Z,93791.13
2022-11-24T15:09:58.043Z,93785.38
2022-11-24T15:12:34.138Z,93800.81
2022-11-24T15:15:03.859Z,93790.25
2022-11-24T15:18:02.511Z,93794.88
2022-11-24T15:20:42.318Z,93793.59
2022-11-24T15:23:30.407Z,93796.69
2022-11-24T15:26:01.918Z,93796.88
2022-11-24T15:28:33.376Z,93789.81
2022-11-24T15:31:05.539Z,93777.50
2022-11-24T15:33:34.021Z,93774.91
2022-11-24T15:36:01.570Z,93789.47
2022-11-24T15:38:28.243Z,93802.84
2022-11-24T15:40:57.734Z,93800.75
2022-11-24T15:43:39.490Z,93806.41
2022-11-24T15:46:08.703Z,93809.84
2022-11-24T15:48:38.230Z,93791.28
2022-11-24T15:51:46.931Z,93808.94
2022-11-24T15:54:27.622Z,93806.06
2022-11-24T15:56:54.056Z,93793.25
2022-11-24T15:59:23.650Z,93796.13
2022-11-24T16:01:56.183Z,93805.66
2022-11-24T16:04:22.733Z,93782.59
2022-11-24T16:06:51.171Z,93802.91
2022-11-24T16:09:21.711Z,93793.81
2022-11-24T16:11:48.259Z,93800.72
2022-11-24T16:14:35.886Z,93814.91
2022-11-24T16:17:03.750Z,93815.34
2022-11-24T16:19:36.188Z,93813.38
2022-11-24T16:22:13.757Z,93796.22
2022-11-24T16:24:40.302Z,93791.72
2022-11-24T16:27:06.869Z,93794.25
2022-11-24T16:29:50.624Z,93799.78
2022-11-24T16:32:17.218Z,93796.91
2022-11-24T16:34:44.738Z,93826.31
2022-11-24T16:37:11.325Z,93806.25
2022-11-24T16:39:37.814Z,93800.78
2022-11-24T16:42:04.619Z,93816.03
2022-11-24T16:44:31.111Z,93799.53
2022-11-24T16:46:57.605Z,93793.16
2022-11-24T16:49:33.404Z,93801.63
2022-11-24T16:51:59.960Z,93815.94
2022-11-24T16:54:26.516Z,93799.78
2022-11-24T16:56:52.947Z,93797.50
2022-11-24T16:59:19.439Z,93804.19
2022-11-24T17:01:56.211Z,93797.53
2022-11-24T17:04:22.670Z,93804.38
2022-11-24T17:06:50.193Z,93795.00
2022-11-24T17:09:17.643Z,93820.56
2022-11-24T17:11:51.381Z,93792.44
2022-11-24T17:14:17.807Z,93804.72
2022-11-24T17:16:44.328Z,93793.38
2022-11-24T17:19:10.885Z,93811.78
2022-11-24T17:21:37.302Z,93817.91
2022-11-24T17:24:08.778Z,93797.59
2022-11-24T17:26:35.324Z,93809.81
2022-11-24T17:29:01.885Z,93805.53
2022-11-24T17:31:32.015Z,93802.25
2022-11-24T17:34:04.413Z,93821.41
2022-11-24T17:36:33.025Z,93821.31
2022-11-24T17:39:00.489Z,93813.88
2022-11-24T17:41:27.859Z,93830.97
2022-11-24T17:43:56.564Z,93800.72
2022-11-24T17:46:27.985Z,93809.03
2022-11-24T17:48:55.128Z,93796.69
2022-11-24T17:51:23.861Z,93782.63
2022-11-24T17:53:52.200Z,93816.81
2022-11-24T17:56:23.387Z,93776.97
2022-11-24T17:59:00.676Z,93825.50
2022-11-24T18:01:30.132Z,93826.47
2022-11-24T18:03:57.432Z,93811.25
2022-11-24T18:06:25.272Z,93808.38
2022-11-24T18:08:53.009Z,93813.84
2022-11-24T18:11:28.865Z,93799.50
2022-11-24T18:14:07.704Z,93782.66
2022-11-24T18:16:38.438Z,93822.28
2022-11-24T18:19:12.013Z,93811.88
2022-11-24T18:21:40.723Z,93827.38
2022-11-24T18:24:12.107Z,93828.28
2022-11-24T18:26:44.763Z,93805.94
2022-11-24T18:29:20.424Z,93828.84
2022-11-24T18:31:46.974Z,93808.75
2022-11-24T18:34:13.601Z,93820.31
2022-11-24T18:36:44.870Z,93812.31
2022-11-24T18:39:14.097Z,93802.22
2022-11-24T18:41:40.592Z,93806.03
2022-11-24T18:44:08.594Z,93813.13
2022-11-24T18:46:35.691Z,93822.56
2022-11-24T18:49:02.200Z,93803.88
2022-11-24T18:51:28.708Z,93795.66
2022-11-24T18:53:55.420Z,93803.88
2022-11-24T18:56:21.920Z,93781.94
2022-11-24T18:58:51.987Z,93768.03
2022-11-24T19:01:23.870Z,93793.09
2022-11-24T19:04:02.063Z,93812.44
2022-11-24T19:07:05.750Z,93822.28
2022-11-24T19:09:32.231Z,93816.69
2022-11-24T19:12:09.236Z,93808.81
2022-11-24T19:14:37.081Z,93825.84
2022-11-24T19:17:04.330Z,93803.75
2022-11-24T19:19:34.143Z,93783.00
2022-11-24T19:22:19.630Z,93800.50
2022-11-24T19:24:50.812Z,93750.88
2022-11-24T19:27:20.690Z,93796.47
2022-11-24T19:29:48.260Z,93772.47
2022-11-24T19:32:21.858Z,93789.22
2022-11-24T19:35:24.560Z,93798.59
2022-11-24T19:37:51.246Z,93774.28
2022-11-24T19:40:18.522Z,93771.16
2022-11-24T19:42:44.955Z,93776.50
2022-11-24T19:45:11.397Z,93801.16
2022-11-24T19:47:37.916Z,93780.91
2022-11-24T19:50:18.570Z,93782.03
2022-11-24T19:52:45.994Z,93776.13
2022-11-24T19:55:22.817Z,93786.44
2022-11-24T19:57:49.235Z,93766.13
2022-11-24T20:00:17.181Z,93758.59
2022-11-24T20:02:43.753Z,93757.38
2022-11-24T20:05:10.310Z,93776.88
2022-11-24T20:07:36.831Z,93755.03
2022-11-24T20:10:07.791Z,93767.75
2022-11-24T20:12:35.653Z,93783.19
2022-11-24T20:15:02.086Z,93779.19
2022-11-24T20:17:30.883Z,93777.66
2022-11-24T20:19:57.445Z,93759.72
2022-11-24T20:22:36.120Z,93780.53
2022-11-24T20:25:06.338Z,93767.84
2022-11-24T20:27:33.885Z,93746.00
2022-11-24T20:30:15.865Z,93746.00
2022-11-24T20:32:47.455Z,93758.22
2022-11-24T20:35:18.474Z,93756.97
2022-11-24T20:37:46.380Z,93747.66
2022-11-24T20:40:23.120Z,93696.66
2022-11-24T20:42:52.688Z,93761.22
2022-11-24T20:45:36.645Z,93775.03
2022-11-24T20:48:03.211Z,93764.19
2022-11-24T20:50:29.631Z,93758.56
2022-11-24T20:52:56.035Z,93754.47
2022-11-24T20:55:22.750Z,93745.59
2022-11-24T20:57:50.288Z,93778.28
2022-11-24T21:00:16.837Z,93759.63
2022-11-24T21:02:43.307Z,93766.53
2022-11-24T21:05:09.757Z,93761.50
2022-11-24T21:07:36.235Z,93746.00
2022-11-24T21:10:06.350Z,93747.06
2022-11-24T21:12:33.165Z,93765.38
2022-11-24T21:14:59.602Z,93760.69
2022-11-24T21:17:32.872Z,93766.97
2022-11-24T21:20:01.134Z,93767.69
2022-11-24T21:22:27.913Z,93759.88
2022-11-24T21:24:54.379Z,93754.06
2022-11-24T21:27:20.882Z,93755.16
2022-11-24T21:29:47.306Z,93764.75
2022-11-24T21:32:19.549Z,93763.13
2022-11-24T21:34:46.175Z,93775.75
2022-11-24T21:37:12.608Z,93760.84
2022-11-24T21:39:48.227Z,93752.59
2022-11-24T21:42:14.761Z,93767.03
2022-11-24T21:44:42.235Z,93750.38
2022-11-24T21:47:08.710Z,93749.88
2022-11-24T21:49:35.230Z,93769.00
2022-11-24T21:52:02.748Z,93741.69
2022-11-24T21:54:29.151Z,93757.13
2022-11-24T21:57:05.124Z,93744.59
2022-11-24T21:59:33.630Z,93732.50
2022-11-24T22:02:00.136Z,93755.34
2022-11-24T22:04:35.233Z,93747.72
2022-11-24T22:07:01.941Z,93749.31
2022-11-24T22:09:28.335Z,93734.75
2022-11-24T22:11:55.616Z,93765.44
2022-11-24T22:14:24.016Z,93746.63
2022-11-24T22:16:50.510Z,93741.94
2022-11-24T22:19:17.087Z,93758.97
2022-11-24T22:21:43.570Z,93739.91
2022-11-24T22:24:10.087Z,93743.41
2022-11-24T22:26:36.925Z,93750.72
2022-11-24T22:29:03.972Z,93758.31
2022-11-24T22:31:32.312Z,93728.84
2022-11-24T22:34:00.293Z,93760.09
2022-11-24T22:36:30.712Z,93755.19
2022-11-24T22:38:59.910Z,93752.38
2022-11-24T22:41:26.351Z,93738.34
2022-11-24T22:44:13.053Z,93751.59
2022-11-24T22:46:39.372Z,93750.66
2022-11-24T22:49:09.873Z,93721.84
2022-11-24T22:51:39.094Z,93738.34
2022-11-24T22:54:06.730Z,93730.25
2022-11-24T22:56:34.005Z,93745.25
2022-11-24T22:59:01.615Z,93735.13
2022-11-24T23:01:29.827Z,93737.00
2022-11-24T23:04:15.885Z,93735.94
2022-11-24T23:06:42.438Z,93717.56
2022-11-24T23:09:11.172Z,93744.44
2022-11-24T23:11:39.672Z,93748.91
2022-11-24T23:14:08.601Z,93711.63
2022-11-24T23:16:35.148Z,93733.25
2022-11-24T23:19:01.626Z,93727.72
2022-11-24T23:21:30.026Z,93710.81
2022-11-24T23:23:58.876Z,93753.13
2022-11-24T23:26:28.368Z,93743.78
2022-11-24T23:28:54.884Z,93763.63
2022-11-24T23:31:27.422Z,93753.09
2022-11-24T23:33:54.857Z,93759.16
2022-11-24T23:36:21.541Z,93736.44
2022-11-24T23:38:48.522Z,93767.25
2022-11-24T23:41:17.637Z,93762.91
2022-11-24T23:43:44.528Z,93767.91
2022-11-24T23:46:13.725Z,93761.84
2022-11-24T23:48:40.587Z,93763.97
2022-11-24T23:51:11.328Z,93756.69
2022-11-24T23:53:38.307Z,93720.97
2022-11-24T23:56:05.859Z,93746.66
2022-11-24T23:58:32.918Z,93755.88
